METAR Data
IDs: Format: Raw Decoded Include TAF

Data at: 1230 UTC 26 Feb 2021

LEXJ 261200Z VRB02KT 9999 SCT032 OVC040 13/11 Q1033